Texas Enterprise — KSDF — position and weather

sailwx.info

Track history (hours):
 
Tides and Currents Weather Stations Pressure Air Temp Water Temp Dewpoint Dewpoint Depression Visibility Wind Speed Wind Dir Waves Ship Positions

Texas Enterprise

Owner: U.S. United Ocean Services, LLC, Tampa, FL. More information available from US FCC via Universal Licensing System and Coast Guard Vessel Documentation Center.

Last reported at 2015-Jun-27 12:33 UTC. Time now 2015-Jul-01 06:38 UTC.
Position N 27°45' W 082°32'.

Type: Cargo ship. MMSI: 366163000.

Date/timePositionNaut miles runAvg speedWind from/ knotsBaromVisibWave heightAir tempDewpointWater temp
2015-Jun-27 12:33N 27°45' W 082°32'7 6.8
2015-Jun-27 11:33N 27°48' W 082°25'0 0.1
2015-Jun-27 10:33N 27°48' W 082°25'0 0.0
2015-Jun-27 09:33N 27°48' W 082°25'0 0.0
2015-Jun-27 08:30N 27°48' W 082°25'0 0.0
2015-Jun-27 07:33N 27°48' W 082°25'0 0.0
2015-Jun-27 06:33N 27°48' W 082°25'0 0.0
2015-Jun-27 05:33N 27°48' W 082°25'0 0.0
2015-Jun-27 04:33N 27°48' W 082°25'0 0.0
2015-Jun-27 03:33N 27°48' W 082°25'0 0.0
2015-Jun-27 02:33N 27°48' W 082°25'0 0.0
2015-Jun-27 01:33N 27°48' W 082°25'0 0.0
2015-Jun-27 00:33N 27°48' W 082°25'0 0.0
2015-Jun-26 23:33N 27°48' W 082°25'0 0.0
2015-Jun-26 22:33N 27°48' W 082°25'0 0.0
2015-Jun-26 21:30N 27°48' W 082°25'0 0.0
2015-Jun-26 20:33N 27°48' W 082°25'0 0.0
2015-Jun-26 19:33N 27°48' W 082°25'0 0.0
2015-Jun-26 18:33N 27°48' W 082°25'0 0.0
2015-Jun-26 17:30N 27°48' W 082°25'0 0.0
2015-Jun-26 16:33N 27°48' W 082°25'0 0.0
2015-Jun-26 15:33N 27°48' W 082°25'0 0.0
2015-Jun-26 14:30N 27°48' W 082°25'0 0.0
2015-Jun-26 13:33N 27°48' W 082°25'0 0.0
2015-Jun-26 12:33N 27°48' W 082°25'0 0.0
2015-Jun-26 11:33N 27°48' W 082°25'0 0.0
2015-Jun-26 10:33N 27°48' W 082°25'0 0.0
2015-Jun-26 09:33N 27°48' W 082°25'0 0.0
2015-Jun-26 08:30N 27°48' W 082°25'0 0.0
2015-Jun-26 07:30N 27°48' W 082°25'0 0.0
2015-Jun-26 06:30N 27°48' W 082°25'0 0.0
2015-Jun-26 05:33N 27°48' W 082°25'0 0.0
2015-Jun-26 04:33N 27°48' W 082°25'0 0.0
2015-Jun-26 03:33N 27°48' W 082°25'0 0.0
2015-Jun-26 02:30N 27°48' W 082°25'0 0.0
2015-Jun-26 01:33N 27°48' W 082°25'0 0.0
2015-Jun-26 00:33N 27°48' W 082°25'0 0.0
2015-Jun-25 23:33N 27°48' W 082°25'0 0.0
2015-Jun-25 22:33N 27°48' W 082°25'0 0.0
2015-Jun-25 21:33N 27°48' W 082°25'0 0.0
2015-Jun-25 20:33N 27°48' W 082°25'0 0.0
2015-Jun-25 19:33N 27°48' W 082°25'0 0.0
2015-Jun-25 18:33N 27°48' W 082°25'0 0.0
2015-Jun-25 17:33N 27°48' W 082°25'0 0.0
2015-Jun-25 16:33N 27°48' W 082°25'0 0.0
2015-Jun-25 15:33N 27°48' W 082°25'0 0.0
2015-Jun-25 14:27N 27°48' W 082°25'0 0.0
2015-Jun-25 13:33N 27°48' W 082°25'0 0.0
2015-Jun-25 12:33N 27°48' W 082°25'0 0.0
2015-Jun-25 11:33N 27°48' W 082°25'0 0.0
2015-Jun-25 10:33N 27°48' W 082°25'0 0.0
2015-Jun-25 09:33N 27°48' W 082°25'0 0.0
2015-Jun-25 08:33N 27°48' W 082°25'0 0.0
2015-Jun-25 07:33N 27°48' W 082°25'0 0.0
2015-Jun-25 06:33N 27°48' W 082°25'0 0.0
2015-Jun-25 05:33N 27°48' W 082°25'0 0.0
2015-Jun-25 04:33N 27°48' W 082°25'0 0.0
2015-Jun-25 03:33N 27°48' W 082°25'0 0.0
2015-Jun-25 02:33N 27°48' W 082°25'0 0.0
2015-Jun-25 01:33N 27°48' W 082°25'0 0.0
2015-Jun-25 00:33N 27°48' W 082°25'0 0.0
2015-Jun-24 23:33N 27°48' W 082°25'1 0.6
2015-Jun-24 22:33N 27°48' W 082°25'7 7.3
2015-Jun-24 21:33N 27°44' W 082°32'24 1.7
2015-Jun-24 07:15N 27°37' W 082°58'0 0.0
2015-Jun-24 06:33N 27°37' W 082°58'  
Track history (hours):
 
Tides and Currents Weather Stations Pressure Air Temp Water Temp Dewpoint Dewpoint Depression Visibility Wind Speed Wind Dir Waves Ship Positions

Texas Enterprise

Owner: U.S. United Ocean Services, LLC, Tampa, FL. More information available from US FCC via Universal Licensing System and Coast Guard Vessel Documentation Center.

Last reported at 2015-Jun-27 12:33 UTC. Time now 2015-Jul-01 06:38 UTC.
Position N 27°45' W 082°32'.

Type: Cargo ship. MMSI: 366163000.

Date/timePositionNaut miles runAvg speedWind from/ knotsBaromVisibWave heightAir tempDewpointWater temp
2015-Jun-27 12:33N 27°45' W 082°32'7 6.8
2015-Jun-27 11:33N 27°48' W 082°25'0 0.1
2015-Jun-27 10:33N 27°48' W 082°25'0 0.0
2015-Jun-27 09:33N 27°48' W 082°25'0 0.0
2015-Jun-27 08:30N 27°48' W 082°25'0 0.0
2015-Jun-27 07:33N 27°48' W 082°25'0 0.0
2015-Jun-27 06:33N 27°48' W 082°25'0 0.0
2015-Jun-27 05:33N 27°48' W 082°25'0 0.0
2015-Jun-27 04:33N 27°48' W 082°25'0 0.0
2015-Jun-27 03:33N 27°48' W 082°25'0 0.0
2015-Jun-27 02:33N 27°48' W 082°25'0 0.0
2015-Jun-27 01:33N 27°48' W 082°25'0 0.0
2015-Jun-27 00:33N 27°48' W 082°25'0 0.0
2015-Jun-26 23:33N 27°48' W 082°25'0 0.0
2015-Jun-26 22:33N 27°48' W 082°25'0 0.0
2015-Jun-26 21:30N 27°48' W 082°25'0 0.0
2015-Jun-26 20:33N 27°48' W 082°25'0 0.0
2015-Jun-26 19:33N 27°48' W 082°25'0 0.0
2015-Jun-26 18:33N 27°48' W 082°25'0 0.0
2015-Jun-26 17:30N 27°48' W 082°25'0 0.0
2015-Jun-26 16:33N 27°48' W 082°25'0 0.0
2015-Jun-26 15:33N 27°48' W 082°25'0 0.0
2015-Jun-26 14:30N 27°48' W 082°25'0 0.0
2015-Jun-26 13:33N 27°48' W 082°25'0 0.0
2015-Jun-26 12:33N 27°48' W 082°25'0 0.0
2015-Jun-26 11:33N 27°48' W 082°25'0 0.0
2015-Jun-26 10:33N 27°48' W 082°25'0 0.0
2015-Jun-26 09:33N 27°48' W 082°25'0 0.0
2015-Jun-26 08:30N 27°48' W 082°25'0 0.0
2015-Jun-26 07:30N 27°48' W 082°25'0 0.0
2015-Jun-26 06:30N 27°48' W 082°25'0 0.0
2015-Jun-26 05:33N 27°48' W 082°25'0 0.0
2015-Jun-26 04:33N 27°48' W 082°25'0 0.0
2015-Jun-26 03:33N 27°48' W 082°25'0 0.0
2015-Jun-26 02:30N 27°48' W 082°25'0 0.0
2015-Jun-26 01:33N 27°48' W 082°25'0 0.0
2015-Jun-26 00:33N 27°48' W 082°25'0 0.0
2015-Jun-25 23:33N 27°48' W 082°25'0 0.0
2015-Jun-25 22:33N 27°48' W 082°25'0 0.0
2015-Jun-25 21:33N 27°48' W 082°25'0 0.0
2015-Jun-25 20:33N 27°48' W 082°25'0 0.0
2015-Jun-25 19:33N 27°48' W 082°25'0 0.0
2015-Jun-25 18:33N 27°48' W 082°25'0 0.0
2015-Jun-25 17:33N 27°48' W 082°25'0 0.0
2015-Jun-25 16:33N 27°48' W 082°25'0 0.0
2015-Jun-25 15:33N 27°48' W 082°25'0 0.0
2015-Jun-25 14:27N 27°48' W 082°25'0 0.0
2015-Jun-25 13:33N 27°48' W 082°25'0 0.0
2015-Jun-25 12:33N 27°48' W 082°25'0 0.0
2015-Jun-25 11:33N 27°48' W 082°25'0 0.0
2015-Jun-25 10:33N 27°48' W 082°25'0 0.0
2015-Jun-25 09:33N 27°48' W 082°25'0 0.0
2015-Jun-25 08:33N 27°48' W 082°25'0 0.0
2015-Jun-25 07:33N 27°48' W 082°25'0 0.0
2015-Jun-25 06:33N 27°48' W 082°25'0 0.0
2015-Jun-25 05:33N 27°48' W 082°25'0 0.0
2015-Jun-25 04:33N 27°48' W 082°25'0 0.0
2015-Jun-25 03:33N 27°48' W 082°25'0 0.0
2015-Jun-25 02:33N 27°48' W 082°25'0 0.0
2015-Jun-25 01:33N 27°48' W 082°25'0 0.0
2015-Jun-25 00:33N 27°48' W 082°25'0 0.0
2015-Jun-24 23:33N 27°48' W 082°25'1 0.6
2015-Jun-24 22:33N 27°48' W 082°25'7 7.3
2015-Jun-24 21:33N 27°44' W 082°32'24 1.7
2015-Jun-24 07:15N 27°37' W 082°58'0 0.0
2015-Jun-24 06:33N 27°37' W 082°58'  

Dump ship's entire track history